Time;durP1;ratioP1;P1;durP2;ratioP2;P2;SDS_P1;SDS_P2;PMS_P1;PMS_P2;Temp;Humidity;BMP_temperature;BMP_pressure;BME280_temperature;BME280_humidity;BME280_pressure;Samples;Min_cycle;Max_cycle;Signal;HPM_P1;HPM_P2
2021/10/29 00:02:16;;;;;;;25.30;15.20;;;8.10;99.90;;;;;;5057191;28;20076;-68
2021/10/29 00:04:42;;;;;;;27.40;15.48;;;8.10;99.90;;;;;;5056577;28;20067;-68
2021/10/29 00:07:08;;;;;;;23.33;15.13;;;8.10;99.90;;;;;;5056431;28;20570;-68
2021/10/29 00:09:35;;;;;;;23.77;14.45;;;8.00;99.90;;;;;;5057046;28;20037;-68
2021/10/29 00:12:01;;;;;;;23.80;14.38;;;8.10;99.90;;;;;;5056459;28;20096;-68
2021/10/29 00:14:27;;;;;;;20.02;12.95;;;8.10;99.90;;;;;;5057003;28;20052;-68
2021/10/29 00:16:53;;;;;;;25.23;14.48;;;8.20;99.90;;;;;;5057489;28;20465;-68
2021/10/29 00:19:19;;;;;;;24.30;13.93;;;8.20;99.90;;;;;;5056882;28;20021;-68
2021/10/29 00:21:45;;;;;;;22.38;13.65;;;8.30;99.90;;;;;;5056303;28;20040;-68
2021/10/29 00:24:10;;;;;;;23.58;13.65;;;8.40;99.90;;;;;;5056755;28;20029;-68
2021/10/29 00:26:36;;;;;;;22.35;13.45;;;8.50;99.90;;;;;;5056423;28;20029;-68
2021/10/29 00:29:02;;;;;;;22.05;12.50;;;8.50;99.90;;;;;;5056697;28;20025;-68
2021/10/29 00:31:28;;;;;;;22.90;12.40;;;8.60;99.90;;;;;;5056630;28;20494;-69
2021/10/29 00:33:53;;;;;;;19.27;12.43;;;8.80;99.90;;;;;;5056614;28;20021;-69
2021/10/29 00:36:19;;;;;;;21.98;12.63;;;8.80;99.90;;;;;;5055414;28;20466;-68
2021/10/29 00:38:45;;;;;;;22.35;13.10;;;8.80;99.90;;;;;;5056042;28;20052;-69
2021/10/29 00:41:10;;;;;;;18.85;11.85;;;8.80;99.90;;;;;;5038442;28;20029;-68
2021/10/29 00:43:36;;;;;;;20.60;12.82;;;8.70;99.90;;;;;;5056175;28;20029;-68
2021/10/29 00:46:01;;;;;;;19.52;12.18;;;8.60;99.90;;;;;;5037958;28;20025;-68
2021/10/29 00:48:27;;;;;;;21.63;12.48;;;8.50;99.90;;;;;;5056072;28;20021;-68
2021/10/29 00:50:52;;;;;;;19.88;12.90;;;8.30;99.90;;;;;;5054859;28;20032;-68
2021/10/29 00:53:19;;;;;;;20.20;12.93;;;8.20;99.90;;;;;;5056286;28;20033;-68
2021/10/29 00:55:45;;;;;;;20.48;13.20;;;8.20;99.90;;;;;;5056186;28;20021;-68
2021/10/29 00:58:10;;;;;;;22.45;13.98;;;8.10;99.90;;;;;;5056144;28;20028;-68
2021/10/29 01:00:36;;;;;;;21.00;13.68;;;8.20;99.90;;;;;;5056110;28;20025;-68
2021/10/29 01:03:01;;;;;;;24.35;13.98;;;8.20;99.90;;;;;;5056035;28;20060;-68
2021/10/29 01:05:27;;;;;;;23.50;12.57;;;8.30;99.90;;;;;;5055616;28;20057;-68
2021/10/29 01:07:55;;;;;;;22.33;12.85;;;8.40;99.90;;;;;;5055962;28;20411;-68
2021/10/29 01:10:21;;;;;;;19.63;11.57;;;8.50;99.90;;;;;;5055916;28;20013;-69
2021/10/29 01:12:46;;;;;;;24.83;11.55;;;8.60;99.90;;;;;;5054453;28;20124;-68
2021/10/29 01:15:12;;;;;;;18.02;10.30;;;8.60;99.90;;;;;;5055828;28;20025;-69
2021/10/29 01:17:38;;;;;;;16.65;9.60;;;8.80;99.90;;;;;;5055764;28;20099;-68
2021/10/29 01:20:05;;;;;;;18.70;11.15;;;9.10;99.90;;;;;;5055471;28;20429;-69
2021/10/29 01:22:31;;;;;;;15.98;9.55;;;9.10;99.90;;;;;;5055680;28;20444;-69
2021/10/29 01:24:57;;;;;;;16.83;10.38;;;9.10;99.90;;;;;;5055629;28;20048;-68
2021/10/29 01:27:22;;;;;;;16.88;9.90;;;9.20;99.90;;;;;;5055219;28;20067;-68
2021/10/29 01:29:50;;;;;;;18.25;9.32;;;9.30;99.90;;;;;;5055551;28;20071;-69
2021/10/29 01:32:16;;;;;;;17.08;10.02;;;9.30;99.90;;;;;;5055521;28;20067;-69
2021/10/29 01:34:42;;;;;;;20.08;10.30;;;9.30;99.90;;;;;;5055449;28;20352;-68
2021/10/29 01:37:10;;;;;;;16.92;9.93;;;9.40;99.90;;;;;;5055150;28;20099;-69
2021/10/29 01:39:37;;;;;;;19.00;10.27;;;9.50;99.90;;;;;;5055100;28;20060;-68
2021/10/29 01:42:03;;;;;;;17.38;9.95;;;9.50;99.90;;;;;;5053864;28;20568;-68
2021/10/29 01:44:29;;;;;;;17.10;9.05;;;9.50;99.90;;;;;;5054987;28;20137;-68
2021/10/29 01:46:55;;;;;;;15.93;8.98;;;9.70;99.90;;;;;;5053320;28;20078;-68
2021/10/29 01:49:21;;;;;;;14.27;8.80;;;9.70;99.90;;;;;;5053238;28;20056;-69
2021/10/29 01:51:46;;;;;;;14.20;9.45;;;9.80;99.90;;;;;;5053043;28;20029;-68
2021/10/29 01:54:12;;;;;;;14.35;8.57;;;9.70;99.90;;;;;;5055035;28;20047;-68
2021/10/29 01:56:38;;;;;;;14.82;9.13;;;9.70;99.90;;;;;;5054758;28;20106;-69
2021/10/29 01:59:04;;;;;;;14.35;8.77;;;9.90;99.90;;;;;;5053421;28;20379;-69
2021/10/29 02:01:30;;;;;;;15.95;8.80;;;9.80;99.90;;;;;;5054916;28;20032;-68
2021/10/29 02:03:56;;;;;;;12.07;8.15;;;9.70;99.90;;;;;;5054900;28;20049;-68
2021/10/29 02:06:22;;;;;;;14.23;8.63;;;9.50;99.90;;;;;;5054050;28;20122;-68
2021/10/29 02:08:48;;;;;;;16.40;9.75;;;9.30;99.90;;;;;;5054837;28;20070;-68
2021/10/29 02:11:14;;;;;;;13.38;8.52;;;9.40;99.90;;;;;;5053051;28;20021;-68
2021/10/29 02:13:39;;;;;;;18.90;9.40;;;9.50;99.90;;;;;;5054737;28;20033;-69
2021/10/29 02:16:06;;;;;;;14.38;8.57;;;9.60;99.90;;;;;;5054665;28;20025;-69
2021/10/29 02:18:32;;;;;;;18.08;10.32;;;9.60;99.90;;;;;;5053503;28;20369;-70
2021/10/29 02:20:57;;;;;;;18.75;8.73;;;9.70;99.90;;;;;;5054627;28;20033;-69
2021/10/29 02:23:23;;;;;;;15.00;7.72;;;9.80;99.90;;;;;;5053105;28;20025;-68
2021/10/29 02:25:49;;;;;;;15.20;8.70;;;9.80;99.90;;;;;;5054194;28;20370;-69
2021/10/29 02:28:17;;;;;;;15.60;8.52;;;9.80;99.90;;;;;;5053280;28;20064;-68
2021/10/29 02:30:43;;;;;;;13.38;9.23;;;9.80;99.90;;;;;;5053857;28;20032;-68
2021/10/29 02:33:09;;;;;;;13.27;8.32;;;9.70;99.90;;;;;;5052672;28;20021;-69
2021/10/29 02:35:35;;;;;;;17.27;9.05;;;9.60;99.90;;;;;;5053342;28;20025;-69
2021/10/29 02:38:01;;;;;;;14.80;9.45;;;9.50;99.90;;;;;;5054293;28;20339;-68
2021/10/29 02:40:27;;;;;;;16.25;9.15;;;9.50;99.90;;;;;;5053994;28;20028;-69
2021/10/29 02:42:52;;;;;;;15.13;9.18;;;9.40;99.90;;;;;;5053092;28;20030;-69
2021/10/29 02:45:18;;;;;;;15.55;9.48;;;9.40;99.90;;;;;;5052780;28;20100;-69
2021/10/29 02:47:46;;;;;;;17.40;9.75;;;9.30;99.90;;;;;;5054115;28;20409;-69
2021/10/29 02:50:13;;;;;;;16.35;9.38;;;9.20;99.90;;;;;;5053568;28;20017;-69
2021/10/29 02:52:38;;;;;;;14.07;9.38;;;9.30;99.90;;;;;;5036292;28;20029;-69
2021/10/29 02:55:04;;;;;;;17.17;9.98;;;9.40;99.90;;;;;;5054051;28;20486;-69
2021/10/29 02:57:30;;;;;;;17.88;9.65;;;9.40;99.90;;;;;;5054047;28;20079;-69
2021/10/29 02:59:55;;;;;;;19.67;9.85;;;9.50;99.90;;;;;;5054027;28;20064;-69
2021/10/29 03:02:21;;;;;;;15.90;9.95;;;9.40;99.90;;;;;;5052000;28;20029;-68
2021/10/29 03:04:47;;;;;;;16.45;10.60;;;9.50;99.90;;;;;;5053684;28;20060;-68
2021/10/29 03:07:13;;;;;;;15.23;10.00;;;9.50;99.90;;;;;;5053215;28;20049;-69
2021/10/29 03:09:38;;;;;;;18.60;10.65;;;9.60;99.90;;;;;;5053955;28;20025;-68
2021/10/29 03:12:04;;;;;;;17.38;10.07;;;9.60;99.90;;;;;;5053922;28;20016;-68
2021/10/29 03:14:30;;;;;;;17.27;10.05;;;9.50;99.90;;;;;;5053898;28;20470;-69
2021/10/29 03:16:55;;;;;;;18.77;10.57;;;9.60;99.90;;;;;;5053596;28;20032;-68
2021/10/29 03:19:21;;;;;;;21.20;11.35;;;9.50;99.90;;;;;;5053835;28;20378;-69
2021/10/29 03:21:46;;;;;;;18.73;11.00;;;9.50;99.90;;;;;;5035422;28;20086;-68
2021/10/29 03:24:12;;;;;;;17.30;9.98;;;9.50;99.90;;;;;;5053520;28;20056;-69
2021/10/29 03:26:38;;;;;;;18.73;10.88;;;9.60;99.90;;;;;;5053661;28;20029;-69
2021/10/29 03:29:03;;;;;;;18.30;11.55;;;9.60;99.90;;;;;;5053720;28;20021;-69
2021/10/29 03:31:29;;;;;;;17.92;10.32;;;9.60;99.90;;;;;;5053713;28;20025;-69
2021/10/29 03:33:55;;;;;;;19.27;11.45;;;9.50;99.90;;;;;;5053680;28;20053;-68
2021/10/29 03:36:21;;;;;;;18.35;10.32;;;9.50;99.90;;;;;;5052515;28;20525;-68
2021/10/29 03:38:52;;;;;;;21.08;11.73;;;9.60;99.90;;;;;;5053394;28;20075;-68
2021/10/29 03:41:20;;;;;;;25.40;13.25;;;9.50;99.90;;;;;;5053359;28;20463;-68
2021/10/29 03:43:54;;;;;;;22.88;11.82;;;9.50;99.90;;;;;;5051789;28;20033;-68
2021/10/29 03:46:24;;;;;;;19.77;11.27;;;9.50;99.90;;;;;;5052398;28;20028;-69
2021/10/29 03:51:47;;;;;;;17.77;11.68;;;9.30;99.90;;;;;;5112224;27;20420;-69
2021/10/29 03:54:19;;;;;;;22.05;12.00;;;9.30;99.90;;;;;;5110724;28;20019;-69
2021/10/29 03:56:52;;;;;;;22.80;12.10;;;9.20;99.90;;;;;;5111964;28;20048;-69
2021/10/29 03:59:18;;;;;;;19.30;11.50;;;9.10;99.90;;;;;;5111640;28;20020;-69
2021/10/29 04:01:44;;;;;;;20.55;12.13;;;9.00;99.90;;;;;;5110407;28;20456;-68
2021/10/29 04:04:09;;;;;;;19.38;11.35;;;9.20;99.90;;;;;;5111450;28;20524;-68
2021/10/29 04:06:35;;;;;;;23.90;11.30;;;9.20;99.90;;;;;;5111446;28;20016;-66
2021/10/29 04:09:00;;;;;;;20.20;12.10;;;9.30;99.90;;;;;;5111651;28;20020;-69
2021/10/29 04:11:27;;;;;;;19.52;11.43;;;9.40;99.90;;;;;;5111603;28;20055;-69
2021/10/29 04:13:53;;;;;;;19.08;11.43;;;9.30;99.90;;;;;;5111628;28;20026;-69
2021/10/29 04:16:19;;;;;;;22.85;12.50;;;9.30;99.90;;;;;;5111571;28;20016;-68
2021/10/29 04:18:45;;;;;;;21.20;12.10;;;9.30;99.90;;;;;;5111228;28;20476;-69
2021/10/29 04:21:11;;;;;;;18.05;11.18;;;9.40;99.90;;;;;;5110255;28;20024;-69
2021/10/29 04:23:36;;;;;;;20.25;11.75;;;9.40;99.90;;;;;;5111086;28;20541;-68
2021/10/29 04:26:02;;;;;;;19.98;11.20;;;9.50;99.90;;;;;;5111048;28;20377;-69
2021/10/29 04:28:28;;;;;;;19.92;11.77;;;9.50;99.90;;;;;;5111303;28;20022;-69
2021/10/29 04:30:55;;;;;;;20.17;11.70;;;9.40;99.90;;;;;;5111212;28;20024;-68
2021/10/29 04:33:20;;;;;;;19.60;11.82;;;9.30;99.90;;;;;;5110018;28;20020;-69
2021/10/29 04:35:51;;;;;;;19.30;11.02;;;9.40;99.90;;;;;;5110916;28;20358;-69
2021/10/29 04:38:17;;;;;;;19.08;11.32;;;9.40;99.90;;;;;;5111145;28;20016;-68
2021/10/29 04:40:43;;;;;;;18.40;11.27;;;9.40;99.90;;;;;;5110788;28;20122;-69
2021/10/29 04:43:11;;;;;;;18.38;11.45;;;9.40;99.90;;;;;;5110762;28;20023;-69
2021/10/29 04:45:37;;;;;;;20.23;11.02;;;9.40;99.90;;;;;;5110668;28;20388;-68
2021/10/29 04:48:03;;;;;;;18.15;11.05;;;9.30;99.90;;;;;;5109118;28;20469;-69
2021/10/29 04:50:30;;;;;;;19.55;11.55;;;9.20;99.90;;;;;;5110318;28;20485;-69
2021/10/29 04:52:56;;;;;;;17.40;12.27;;;9.10;99.90;;;;;;5110615;28;20058;-68
2021/10/29 04:55:22;;;;;;;20.95;11.93;;;9.00;99.90;;;;;;5110777;28;20066;-68
2021/10/29 04:57:48;;;;;;;18.05;10.55;;;8.90;99.90;;;;;;5110703;28;20024;-69
2021/10/29 05:00:14;;;;;;;18.70;10.90;;;8.80;99.90;;;;;;5109700;28;20032;-68
2021/10/29 05:02:40;;;;;;;19.55;10.85;;;8.90;99.90;;;;;;5098697;28;20020;-69
2021/10/29 05:05:08;;;;;;;16.33;10.52;;;8.80;99.90;;;;;;5097045;28;20020;-68
2021/10/29 05:07:34;;;;;;;18.00;10.35;;;8.80;99.90;;;;;;5096705;28;20016;-69
2021/10/29 05:10:00;;;;;;;21.27;11.05;;;8.70;99.90;;;;;;5096292;28;20373;-68
2021/10/29 05:12:26;;;;;;;19.63;11.45;;;8.60;99.90;;;;;;5096887;28;20027;-68
2021/10/29 05:14:53;;;;;;;16.55;9.80;;;8.60;99.90;;;;;;5096864;28;20099;-68
2021/10/29 05:17:18;;;;;;;17.77;9.80;;;8.50;99.90;;;;;;5096780;28;20024;-68
2021/10/29 05:19:44;;;;;;;19.58;11.50;;;8.40;99.90;;;;;;5095299;28;20028;-68
2021/10/29 05:22:10;;;;;;;19.17;11.05;;;8.40;99.90;;;;;;5096634;28;20035;-68
2021/10/29 05:24:35;;;;;;;17.77;10.85;;;8.30;99.90;;;;;;5095243;28;20024;-68
2021/10/29 05:27:01;;;;;;;18.83;10.52;;;8.30;99.90;;;;;;5096588;28;20024;-68
2021/10/29 05:29:26;;;;;;;19.08;10.65;;;8.20;99.90;;;;;;5096195;28;20096;-68
2021/10/29 05:31:52;;;;;;;17.17;9.90;;;8.10;99.90;;;;;;5096201;28;20024;-68
2021/10/29 05:34:19;;;;;;;15.32;10.38;;;8.10;99.90;;;;;;5096163;28;20416;-68
2021/10/29 05:36:45;;;;;;;18.40;10.60;;;8.30;99.90;;;;;;5096442;28;20124;-68
2021/10/29 05:39:10;;;;;;;18.25;9.90;;;8.40;99.90;;;;;;5096382;28;20016;-69
2021/10/29 05:41:36;;;;;;;16.80;9.98;;;8.60;99.90;;;;;;5096353;28;20491;-69
2021/10/29 05:44:02;;;;;;;19.63;11.43;;;8.80;99.90;;;;;;5094458;28;20432;-68
2021/10/29 05:46:31;;;;;;;18.42;9.95;;;8.90;99.90;;;;;;5095962;28;20525;-68
2021/10/29 05:48:57;;;;;;;17.67;10.48;;;9.00;99.90;;;;;;5095941;28;20027;-69
2021/10/29 05:51:24;;;;;;;19.90;13.43;;;9.00;99.90;;;;;;5094301;28;20040;-69
2021/10/29 05:56:27;;;;;;;24.33;14.20;;;9.20;99.90;;;;;;5112200;27;20310;-69
2021/10/29 05:58:52;;;;;;;22.60;12.98;;;9.30;99.90;;;;;;5110502;28;20388;-69
2021/10/29 06:01:18;;;;;;;19.85;12.57;;;9.40;99.90;;;;;;5111668;28;20555;-69
2021/10/29 06:03:44;;;;;;;25.30;15.65;;;9.50;99.90;;;;;;5111862;28;20103;-69
2021/10/29 06:06:09;;;;;;;25.35;15.52;;;9.50;99.90;;;;;;5110618;28;20032;-68
2021/10/29 06:08:35;;;;;;;25.77;16.25;;;9.70;99.90;;;;;;5110484;28;20039;-70
2021/10/29 06:11:00;;;;;;;21.35;13.30;;;9.70;99.90;;;;;;5111455;28;20036;-68
2021/10/29 06:13:26;;;;;;;28.25;16.55;;;9.70;99.90;;;;;;5111351;28;20028;-69
2021/10/29 06:15:51;;;;;;;24.95;15.60;;;9.70;99.90;;;;;;5111178;28;20031;-69
2021/10/29 06:18:23;;;;;;;18.88;12.98;;;9.70;99.90;;;;;;5111463;28;20461;-69
2021/10/29 06:20:50;;;;;;;19.15;12.45;;;9.70;99.90;;;;;;5111528;28;20169;-69
2021/10/29 06:23:18;;;;;;;19.00;12.00;;;9.60;99.90;;;;;;5111490;28;20464;-69
2021/10/29 06:25:46;;;;;;;18.00;11.25;;;9.70;99.90;;;;;;5111068;28;20027;-69
2021/10/29 06:28:28;;;;;;;20.17;10.63;;;9.70;99.90;;;;;;5111384;28;20463;-69
2021/10/29 06:30:54;;;;;;;20.00;10.98;;;9.80;99.90;;;;;;5111311;28;20046;-68
2021/10/29 06:33:23;;;;;;;21.77;10.52;;;9.90;99.90;;;;;;5111023;28;20024;-68
2021/10/29 06:35:50;;;;;;;19.30;11.90;;;10.00;99.90;;;;;;5111089;28;20565;-69
2021/10/29 06:38:16;;;;;;;17.42;11.30;;;10.00;99.90;;;;;;5110882;28;20063;-69
2021/10/29 06:40:45;;;;;;;20.35;12.63;;;10.20;99.90;;;;;;5111132;28;20016;-69
2021/10/29 06:43:19;;;;;;;16.02;10.98;;;10.40;99.90;;;;;;5110790;28;20024;-69
2021/10/29 06:59:42;;;;;;;13.40;8.63;;;12.90;99.90;;;;;;5089677;28;20084;-69
2021/10/29 07:02:31;;;;;;;14.23;8.90;;;12.90;99.90;;;;;;5094841;28;20024;-69
2021/10/29 07:40:43;;;;;;;12.93;7.05;;;14.90;99.90;;;;;;5095367;28;20485;-67
2021/10/29 07:43:13;;;;;;;11.82;6.57;;;15.10;99.90;;;;;;5093028;28;20024;-66
2021/10/29 07:45:40;;;;;;;11.85;6.78;;;15.00;99.90;;;;;;5096440;28;20016;-67
2021/10/29 07:48:06;;;;;;;9.95;6.43;;;15.20;99.90;;;;;;5098772;28;20056;-67
2021/10/29 07:50:32;;;;;;;11.00;6.82;;;14.90;99.90;;;;;;5109693;28;20416;-67
2021/10/29 07:52:58;;;;;;;11.15;6.80;;;14.60;99.90;;;;;;5107760;28;20028;-67
2021/10/29 07:55:27;;;;;;;12.60;7.28;;;14.70;99.90;;;;;;5090720;28;20025;-67
2021/10/29 07:57:59;;;;;;;11.85;6.53;;;14.60;99.90;;;;;;5097526;28;20020;-67
2021/10/29 08:00:25;;;;;;;11.73;6.43;;;14.70;99.90;;;;;;5110995;28;20361;-67
2021/10/29 08:02:51;;;;;;;12.48;6.72;;;15.20;99.90;;;;;;5092534;28;20036;-67
2021/10/29 08:05:19;;;;;;;10.10;6.40;;;15.80;99.90;;;;;;5088347;28;20032;-66
2021/10/29 08:07:44;;;;;;;13.73;7.00;;;16.10;99.90;;;;;;5094788;28;20366;-66
2021/10/29 08:10:11;;;;;;;13.25;6.25;;;16.40;99.90;;;;;;5099895;28;20027;-66
2021/10/29 08:12:38;;;;;;;10.82;7.40;;;16.80;99.90;;;;;;5089786;28;20031;-67
2021/10/29 08:15:05;;;;;;;11.73;6.85;;;17.00;99.90;;;;;;5090361;28;20045;-67
2021/10/29 08:17:33;;;;;;;10.00;6.35;;;17.10;99.90;;;;;;5074859;28;20035;-67
2021/10/29 08:19:59;;;;;;;12.00;6.60;;;17.30;99.90;;;;;;5105764;28;20111;-67
2021/10/29 08:22:25;;;;;;;11.65;6.10;;;17.80;99.90;;;;;;5082747;28;20081;-67
2021/10/29 08:24:50;;;;;;;9.68;6.07;;;17.60;99.90;;;;;;5096788;28;20033;-67
2021/10/29 08:27:16;;;;;;;10.02;6.85;;;17.60;99.90;;;;;;5087835;28;20159;-67
2021/10/29 08:29:42;;;;;;;13.88;6.50;;;17.40;99.90;;;;;;5062912;28;20029;-67
2021/10/29 08:32:08;;;;;;;11.40;6.82;;;17.50;99.90;;;;;;5057300;28;20082;-67
2021/10/29 08:34:34;;;;;;;10.80;6.20;;;17.30;99.90;;;;;;5094740;28;20382;-67
2021/10/29 08:37:03;;;;;;;8.93;6.28;;;17.40;99.90;;;;;;5084834;28;20028;-67
2021/10/29 08:39:29;;;;;;;10.60;6.15;;;17.80;99.90;;;;;;5068987;28;20041;-67
2021/10/29 08:41:57;;;;;;;9.88;6.28;;;18.10;99.90;;;;;;5076485;28;20021;-67
2021/10/29 08:44:23;;;;;;;9.55;5.93;;;18.00;99.90;;;;;;5074335;28;20037;-67
2021/10/29 08:46:50;;;;;;;12.77;6.22;;;18.00;99.90;;;;;;5083400;28;20032;-67
2021/10/29 08:49:16;;;;;;;8.18;5.50;;;18.10;99.90;;;;;;5075995;28;20032;-67
2021/10/29 08:51:42;;;;;;;9.88;5.78;;;18.40;99.90;;;;;;5076203;28;20390;-67
2021/10/29 08:54:09;;;;;;;10.70;5.50;;;18.30;99.90;;;;;;5087757;28;20031;-67
2021/10/29 08:56:35;;;;;;;10.13;6.35;;;18.40;99.90;;;;;;5088212;28;20470;-67
2021/10/29 08:59:10;;;;;;;9.50;6.13;;;17.90;99.90;;;;;;5068879;28;20028;-69
2021/10/29 09:02:17;;;;;;;9.70;5.68;;;17.40;99.90;;;;;;5082110;28;20032;-70
2021/10/29 09:07:39;;;;;;;9.23;5.68;;;17.60;99.90;;;;;;5070823;28;20448;-69
2021/10/29 09:32:57;;;;;;;13.35;7.15;;;18.90;99.90;;;;;;5035605;28;20036;-69
2021/10/29 09:35:26;;;;;;;12.15;5.93;;;18.40;99.90;;;;;;5032966;28;20032;-69
2021/10/29 09:38:14;;;;;;;9.95;6.60;;;18.20;99.90;;;;;;5064700;28;20312;-69
2021/10/29 09:40:53;;;;;;;7.78;6.25;;;18.30;99.90;;;;;;5053905;28;20033;-69
2021/10/29 09:43:21;;;;;;;9.35;5.80;;;18.20;99.90;;;;;;5047913;28;20031;-69
2021/10/29 09:45:56;;;;;;;9.88;5.68;;;18.30;99.90;;;;;;5071659;28;20064;-69
2021/10/29 09:48:29;;;;;;;11.45;5.82;;;18.20;99.90;;;;;;5068998;28;20537;-69
2021/10/29 09:50:57;;;;;;;;;;;17.90;99.90;;;;;;5070186;28;20171;-69
2021/10/29 09:56:44;;;;;;;9.20;6.80;;;16.90;99.90;;;;;;5110728;27;20355;-68
2021/10/29 09:59:08;;;;;;;8.65;6.47;;;16.80;99.90;;;;;;5108947;28;20103;-68
2021/10/29 10:01:34;;;;;;;10.32;6.10;;;16.80;99.90;;;;;;5110960;28;20023;-68
2021/10/29 10:04:04;;;;;;;13.02;6.38;;;16.60;99.90;;;;;;5110829;28;20020;-68
2021/10/29 10:06:32;;;;;;;7.88;6.00;;;16.60;99.90;;;;;;5110689;28;20027;-68
2021/10/29 10:08:59;;;;;;;8.43;4.95;;;16.70;99.90;;;;;;5109504;28;20114;-68
2021/10/29 10:11:27;;;;;;;8.43;5.03;;;16.70;99.90;;;;;;5110273;28;20520;-68
2021/10/29 10:13:54;;;;;;;8.13;6.07;;;16.70;99.90;;;;;;5111081;28;20063;-68
2021/10/29 10:16:21;;;;;;;8.73;5.75;;;16.50;99.90;;;;;;5107404;28;20056;-68
2021/10/29 10:18:47;;;;;;;10.82;5.70;;;16.50;99.90;;;;;;5110698;28;20030;-68
2021/10/29 10:21:19;;;;;;;10.35;5.82;;;16.30;99.90;;;;;;5110749;28;20028;-68
2021/10/29 10:23:49;;;;;;;10.15;6.50;;;16.40;99.90;;;;;;5110266;28;20018;-68
2021/10/29 10:26:24;;;;;;;9.48;6.32;;;16.40;99.90;;;;;;5109962;28;20028;-67
2021/10/29 10:46:08;;;;;;;11.70;6.00;;;16.20;99.90;;;;;;5109993;28;20024;-68
2021/10/29 10:48:45;;;;;;;8.43;5.93;;;16.10;99.90;;;;;;5108981;28;20027;-68
2021/10/29 10:51:36;;;;;;;10.73;6.43;;;16.20;99.90;;;;;;5109852;28;20027;-68
2021/10/29 10:57:13;;;;;;;9.57;6.25;;;16.10;99.90;;;;;;5090898;28;20364;-68
2021/10/29 11:00:04;;;;;;;8.15;5.25;;;16.10;99.90;;;;;;5071422;28;20013;-68
2021/10/29 11:02:57;;;;;;;10.05;5.82;;;16.10;99.90;;;;;;5070761;28;20367;-69
2021/10/29 11:05:33;;;;;;;12.15;6.80;;;16.10;99.90;;;;;;5089056;28;20401;-68
2021/10/29 11:11:14;;;;;;;11.80;6.70;;;16.30;99.90;;;;;;5091729;28;20456;-68
2021/10/29 11:13:47;;;;;;;11.90;7.18;;;16.10;99.90;;;;;;5087451;28;20021;-68
2021/10/29 11:16:16;;;;;;;8.88;6.68;;;16.00;99.90;;;;;;5090960;28;20023;-68
2021/10/29 11:18:56;;;;;;;8.00;6.78;;;16.10;99.90;;;;;;5090706;28;20024;-68
2021/10/29 11:21:28;;;;;;;10.45;6.70;;;16.20;99.90;;;;;;5090230;28;20028;-68
2021/10/29 11:23:58;;;;;;;8.95;6.72;;;16.20;99.90;;;;;;5088618;28;20024;-68
2021/10/29 11:26:29;;;;;;;10.45;7.25;;;16.20;99.90;;;;;;5091223;28;20709;-68
2021/10/29 11:28:57;;;;;;;13.98;7.80;;;16.20;99.90;;;;;;5077805;28;20386;-69
2021/10/29 11:31:27;;;;;;;9.07;7.13;;;16.30;99.90;;;;;;5089041;28;20063;-68
2021/10/29 11:33:54;;;;;;;10.02;7.38;;;16.20;99.90;;;;;;5080283;28;20025;-69
2021/10/29 11:36:24;;;;;;;11.93;7.53;;;16.10;99.90;;;;;;5070793;28;20036;-68
2021/10/29 11:38:51;;;;;;;10.52;7.03;;;16.00;99.90;;;;;;5089783;28;20025;-68
2021/10/29 11:41:20;;;;;;;11.05;6.78;;;16.00;99.90;;;;;;5084640;28;20469;-68
2021/10/29 11:43:47;;;;;;;10.68;7.03;;;15.90;99.90;;;;;;5079006;28;20025;-68
2021/10/29 11:46:14;;;;;;;13.32;7.07;;;15.90;99.90;;;;;;5089982;28;20103;-68
2021/10/29 11:49:05;;;;;;;11.63;6.32;;;15.90;99.90;;;;;;5089614;28;20012;-68
2021/10/29 11:51:33;;;;;;;10.35;6.28;;;15.90;99.90;;;;;;5090568;28;20047;-68
2021/10/29 11:54:23;;;;;;;11.20;6.68;;;16.00;99.90;;;;;;5089699;28;20027;-68
2021/10/29 11:57:06;;;;;;;7.65;5.88;;;15.90;99.90;;;;;;5089271;28;20035;-68
2021/10/29 11:59:53;;;;;;;14.02;6.03;;;15.90;99.90;;;;;;5089759;28;20044;-68
2021/10/29 12:06:13;;;;;;;11.65;6.32;;;16.00;99.90;;;;;;5088277;28;20495;-68
2021/10/29 12:07:34;;;;;;;9.75;5.60;;;16.00;99.90;;;;;;5087605;28;20035;-68
2021/10/29 12:10:05;;;;;;;9.80;6.47;;;16.10;99.90;;;;;;5069327;28;20055;-68
2021/10/29 12:12:33;;;;;;;7.88;5.57;;;16.10;99.90;;;;;;5083707;28;20027;-68
2021/10/29 12:15:07;;;;;;;12.85;6.18;;;16.20;99.90;;;;;;5090059;28;20507;-68
2021/10/29 12:17:35;;;;;;;10.32;6.18;;;16.30;99.90;;;;;;5088598;28;20397;-68
2021/10/29 12:20:05;;;;;;;10.63;6.68;;;16.30;99.90;;;;;;5088765;28;20115;-68
2021/10/29 12:22:36;;;;;;;9.63;6.93;;;16.30;99.90;;;;;;5075969;28;20029;-68
2021/10/29 12:25:16;;;;;;;8.25;6.00;;;16.40;99.90;;;;;;5076191;28;20378;-69
2021/10/29 12:27:48;;;;;;;9.65;6.53;;;16.40;99.90;;;;;;5075785;28;20039;-69
2021/10/29 12:30:21;;;;;;;7.97;5.72;;;16.60;99.90;;;;;;5076060;28;20119;-68
2021/10/29 12:38:47;;;;;;;7.00;5.60;;;16.70;99.90;;;;;;5072128;28;20073;-68
2021/10/29 12:53:00;;;;;;;6.20;5.00;;;17.20;99.90;;;;;;5119211;27;20115;-69
2021/10/29 13:01:35;;;;;;;6.75;4.43;;;17.70;99.90;;;;;;5119544;28;20059;-68
2021/10/29 13:03:47;;;;;;;11.07;5.63;;;17.70;99.90;;;;;;5121112;28;20023;-69
2021/10/29 13:06:15;;;;;;;8.13;5.05;;;17.60;99.90;;;;;;5111414;28;20462;-68
2021/10/29 13:08:49;;;;;;;8.15;4.90;;;17.60;99.90;;;;;;5111512;28;20484;-69
2021/10/29 13:11:16;;;;;;;8.18;5.28;;;17.60;99.90;;;;;;5125541;28;20074;-69
2021/10/29 13:14:00;;;;;;;7.07;5.32;;;17.60;99.90;;;;;;5118989;28;20031;-68
2021/10/29 13:16:27;;;;;;;8.05;5.50;;;17.50;99.90;;;;;;5108849;28;20116;-68
2021/10/29 13:19:07;;;;;;;9.98;5.47;;;17.50;99.90;;;;;;5113768;28;20050;-69
2021/10/29 13:27:43;;;;;;;9.38;5.25;;;17.40;99.90;;;;;;5112227;27;20354;-68
2021/10/29 13:35:40;;;;;;;8.32;5.57;;;17.50;99.90;;;;;;5110937;28;20024;-69
2021/10/29 13:38:23;;;;;;;5.82;5.22;;;17.40;99.90;;;;;;5110303;28;20023;-69
2021/10/29 13:52:01;;;;;;;12.00;5.38;;;17.30;99.90;;;;;;5110754;28;20043;-69
2021/10/29 13:54:53;;;;;;;8.48;5.75;;;17.30;99.90;;;;;;5110308;28;20046;-69
2021/10/29 14:00:40;;;;;;;8.32;5.63;;;17.20;99.90;;;;;;5110660;28;20051;-69
2021/10/29 14:02:59;;;;;;;5.82;5.10;;;17.20;99.90;;;;;;5109583;28;20024;-68
2021/10/29 14:30:20;;;;;;;8.52;4.47;;;18.00;99.90;;;;;;5110012;28;20027;-67
2021/10/29 14:35:33;;;;;;;12.73;5.38;;;18.20;99.90;;;;;;5112228;27;20287;-66
2021/10/29 14:38:06;;;;;;;7.57;4.32;;;18.30;99.90;;;;;;5111876;28;20016;-66
2021/10/29 14:40:39;;;;;;;6.55;4.38;;;18.30;99.90;;;;;;5111797;28;20511;-67
2021/10/29 14:43:12;;;;;;;6.68;3.78;;;18.20;99.90;;;;;;5111553;28;20030;-67
2021/10/29 14:48:36;;;;;;;8.63;4.10;;;18.00;99.90;;;;;;5110847;28;20028;-67
2021/10/29 15:02:32;;;;;;;5.07;4.15;;;17.60;99.90;;;;;;5111107;28;20024;-66
2021/10/29 15:05:02;;;;;;;8.60;5.03;;;17.60;99.90;;;;;;5110162;28;20077;-66
2021/10/29 15:14:47;;;;;;;7.28;4.78;;;17.50;99.90;;;;;;5112113;28;20107;-66
2021/10/29 15:26:49;;;;;;;6.97;4.55;;;17.00;99.90;;;;;;5110691;28;20059;-67
2021/10/29 15:32:31;;;;;;;7.85;4.38;;;16.80;99.90;;;;;;5109589;28;20069;-67
2021/10/29 15:43:16;;;;;;;7.95;4.70;;;16.50;99.90;;;;;;5110380;28;20077;-66
2021/10/29 15:45:44;;;;;;;8.95;4.63;;;16.40;99.90;;;;;;5110774;28;20030;-66
2021/10/29 15:48:15;;;;;;;7.18;5.05;;;16.30;99.90;;;;;;5110949;28;20070;-66
2021/10/29 15:50:41;;;;;;;7.13;4.90;;;16.20;99.90;;;;;;5110687;28;20026;-67
2021/10/29 15:53:09;;;;;;;10.20;5.35;;;16.10;99.90;;;;;;5109425;28;20513;-66
2021/10/29 15:55:41;;;;;;;6.90;4.93;;;16.00;99.90;;;;;;5109928;28;20044;-67
2021/10/29 15:58:22;;;;;;;7.82;5.10;;;16.00;99.90;;;;;;5110506;28;20077;-66
2021/10/29 16:03:51;;;;;;;8.93;5.30;;;15.80;99.90;;;;;;5109928;28;20020;-66
2021/10/29 16:17:20;;;;;;;11.05;6.88;;;15.60;99.90;;;;;;5096106;28;20470;-66
2021/10/29 16:19:46;;;;;;;9.68;6.80;;;15.50;99.90;;;;;;5094945;28;20073;-66
2021/10/29 16:22:23;;;;;;;12.88;7.00;;;15.50;99.90;;;;;;5095009;28;20377;-66
2021/10/29 16:25:08;;;;;;;12.15;7.38;;;15.30;99.90;;;;;;5096435;28;20024;-66
2021/10/29 16:27:48;;;;;;;10.52;6.75;;;15.20;99.90;;;;;;5096339;28;20473;-66
2021/10/29 16:30:15;;;;;;;9.02;6.88;;;15.20;99.90;;;;;;5096319;28;20103;-66
2021/10/29 16:35:28;;;;;;;10.32;6.60;;;14.90;99.90;;;;;;5095703;28;20028;-67
2021/10/29 16:37:54;;;;;;;11.55;7.13;;;;;;;;;;5094715;28;20428;-67
2021/10/29 16:40:21;;;;;;;12.20;8.50;;;;;;;;;;5096102;28;20404;-66
2021/10/29 16:42:47;;;;;;;12.85;7.80;;;;;;;;;;5096091;28;20027;-66
2021/10/29 16:45:14;;;;;;;12.55;8.25;;;;;;;;;;5094884;28;20450;-66
2021/10/29 16:47:41;;;;;;;14.27;8.90;;;;;;;;;;5095990;28;20078;-66
2021/10/29 16:50:08;;;;;;;14.32;9.30;;;;;;;;;;5095645;28;20024;-66
2021/10/29 16:52:34;;;;;;;16.77;8.57;;;;;;;;;;5095915;28;20024;-67
2021/10/29 16:55:00;;;;;;;10.90;8.32;;;;;;;;;;5095487;28;20401;-67
2021/10/29 16:57:26;;;;;;;14.00;8.48;;;;;;;;;;5095804;28;20020;-66